Impacts TAF Board INFO
FOR SITUATIONAL AWARENESS. NOT TO BE USED FOR FLIGHT PLANNING PURPOSES.
IDs:

KPDX - Portland Intl Arpt, OR, US

Issued at 0529 UTC 16 Dec 2017
Updated at 0721 UTC 16 Dec 2017
Potential Impact None Slight Moderate High
Time<<16/20Z 16/21Z 16/22Z 16/23Z 17/00Z 17/01Z 17/02Z 17/03Z 17/04Z 17/05Z 17/06Z 17/07Z 17/08Z>>
Type PRVL PRVL PRVL PRVL PRVL PRVL PRVL PRVL PRVL PRVL
VIS >6 >6 >6 >6 >6 >6 >6 >6 >6 >6
CIG 25 25 25 25 25 25 25 25 25 25
Cover OVC OVC OVC OVC OVC OVC OVC OVC OVC OVC
FltCat MVFR MVFR MVFR MVFR MVFR MVFR MVFR MVFR MVFR MVFR
WX VCSH VCSH VCSH VCSH VCSH VCSH VCSH VCSH VCSH VCSH
WDir 150 150 150 150 150 150 150 150 150 150
WSpd 3 3 3 3 3 3 3 3 3 3
WGst -- -- -- -- -- -- -- -- -- --

Raw TAF
KPDX 160529Z 1606/1706 VRB03KT P6SM VCSH SCT030 BKN060
  FM160900 VRB03KT 6SM BR BKN035 OVC050
  FM161900 15003KT P6SM VCSH BKN025 OVC040


METAR Board
Radar Display
Forecast Discussion

FOR SITUATIONAL AWARENESS. NOT TO BE USED FOR FLIGHT PLANNING PURPOSES.